createdAt,value
2018-01-10T00:00:26.106Z,59.47
2018-01-10T00:00:57.750Z,55.95
2018-01-10T00:01:29.286Z,58.85
2018-01-10T00:02:00.849Z,57.97
2018-01-10T00:02:32.416Z,58.50
2018-01-10T00:03:03.965Z,63.92
2018-01-10T00:03:35.522Z,53.30
2018-01-10T00:04:07.063Z,57.08
2018-01-10T00:04:38.630Z,60.65
2018-01-10T00:05:10.189Z,50.90
2018-01-10T00:05:41.725Z,61.15
2018-01-10T00:06:13.279Z,63.20
2018-01-10T00:06:44.859Z,61.03
2018-01-10T00:07:16.441Z,57.62
2018-01-10T00:07:48.010Z,68.20
2018-01-10T00:08:19.591Z,58.38
2018-01-10T00:08:51.194Z,63.92
2018-01-10T00:09:22.733Z,59.22
2018-01-10T00:09:54.318Z,60.28
2018-01-10T00:10:25.883Z,68.62
2018-01-10T00:10:57.460Z,67.80
2018-01-10T00:11:29.029Z,63.42
2018-01-10T00:12:00.584Z,64.50
2018-01-10T00:12:32.140Z,63.63
2018-01-10T00:13:03.707Z,61.08
2018-01-10T00:13:35.274Z,67.75
2018-01-10T00:14:06.845Z,63.63
2018-01-10T00:14:38.421Z,65.45
2018-01-10T00:15:10.007Z,64.37
2018-01-10T00:15:41.558Z,65.18
2018-01-10T00:16:13.104Z,79.00
2018-01-10T00:16:44.660Z,65.55
2018-01-10T00:17:16.213Z,75.85
2018-01-10T00:17:47.761Z,69.45
2018-01-10T00:18:19.328Z,63.72
2018-01-10T00:18:50.904Z,65.97
2018-01-10T00:19:22.485Z,60.33
2018-01-10T00:19:54.044Z,65.57
2018-01-10T00:20:25.631Z,61.80
2018-01-10T00:20:57.184Z,64.00
2018-01-10T00:21:28.739Z,74.35
2018-01-10T00:22:00.270Z,69.15
2018-01-10T00:22:31.794Z,65.22
2018-01-10T00:23:03.369Z,62.85
2018-01-10T00:23:34.919Z,67.65
2018-01-10T00:24:06.474Z,59.67
2018-01-10T00:24:38.046Z,72.15
2018-01-10T00:25:09.608Z,62.30
2018-01-10T00:25:41.176Z,65.78
2018-01-10T00:26:12.722Z,72.53
2018-01-10T00:26:44.271Z,69.20
2018-01-10T00:27:15.833Z,71.68
2018-01-10T00:27:47.510Z,68.20
2018-01-10T00:28:19.075Z,67.18
2018-01-10T00:28:50.662Z,67.47
2018-01-10T00:29:22.220Z,71.72
2018-01-10T00:29:53.752Z,64.60
2018-01-10T00:30:25.292Z,72.47
2018-01-10T00:30:56.843Z,69.57
2018-01-10T00:31:28.407Z,69.35
2018-01-10T00:31:59.976Z,66.80
2018-01-10T00:32:31.530Z,66.47
2018-01-10T00:33:03.093Z,53.90
2018-01-10T00:33:34.656Z,64.28
2018-01-10T00:34:06.209Z,73.25
2018-01-10T00:34:37.768Z,72.40
2018-01-10T00:35:09.348Z,63.85
2018-01-10T00:35:40.917Z,66.65
2018-01-10T00:36:12.511Z,70.22
2018-01-10T00:36:44.074Z,67.70
2018-01-10T00:37:15.638Z,70.62
2018-01-10T00:37:47.196Z,70.80
2018-01-10T00:38:18.758Z,70.68
2018-01-10T00:38:50.308Z,68.15
2018-01-10T00:39:21.868Z,64.30
2018-01-10T00:39:53.444Z,71.43
2018-01-10T00:40:24.990Z,75.53
2018-01-10T00:40:56.555Z,69.82
2018-01-10T00:41:28.140Z,63.10
2018-01-10T00:41:59.695Z,69.07
2018-01-10T00:42:31.258Z,67.45
2018-01-10T00:43:02.796Z,69.05
2018-01-10T00:43:34.355Z,67.62
2018-01-10T00:44:05.900Z,66.37
2018-01-10T00:44:37.461Z,60.90
2018-01-10T00:45:09.028Z,68.28
2018-01-10T00:45:40.572Z,69.85
2018-01-10T00:46:12.148Z,66.93
2018-01-10T00:46:43.732Z,72.97
2018-01-10T00:47:15.321Z,68.97
2018-01-10T00:47:46.872Z,71.90
2018-01-10T00:48:18.432Z,66.32
2018-01-10T00:48:50.000Z,70.97
2018-01-10T00:49:21.545Z,67.80
2018-01-10T00:49:53.104Z,62.55
2018-01-10T00:50:24.674Z,65.50
2018-01-10T00:50:56.219Z,70.03
2018-01-10T00:51:27.761Z,70.18
2018-01-10T00:51:59.325Z,70.53
2018-01-10T00:52:30.873Z,72.35
2018-01-10T00:53:02.415Z,64.22
2018-01-10T00:53:33.984Z,67.90
2018-01-10T00:54:05.588Z,68.85
2018-01-10T00:54:37.134Z,67.20
2018-01-10T00:55:08.680Z,63.22
2018-01-10T00:55:40.243Z,65.78
2018-01-10T00:56:11.792Z,70.53
2018-01-10T00:56:43.328Z,75.97
2018-01-10T00:57:14.905Z,72.53
2018-01-10T00:57:46.470Z,65.45
2018-01-10T00:58:18.040Z,79.00
2018-01-10T00:58:49.592Z,78.43
2018-01-10T00:59:21.136Z,74.37
2018-01-10T00:59:52.675Z,69.82
2018-01-10T01:00:24.266Z,71.70
2018-01-10T01:00:55.836Z,79.93
2018-01-10T01:01:27.437Z,78.35
2018-01-10T01:01:58.978Z,63.25
2018-01-10T01:02:30.544Z,64.20
2018-01-10T01:03:02.108Z,82.53
2018-01-10T01:03:33.679Z,64.00
2018-01-10T01:04:05.246Z,74.68
2018-01-10T01:04:36.810Z,66.15
2018-01-10T01:05:08.368Z,65.22
2018-01-10T01:05:39.951Z,65.93
2018-01-10T01:06:11.514Z,70.37
2018-01-10T01:06:43.084Z,63.85
2018-01-10T01:07:14.658Z,62.67
2018-01-10T01:07:46.217Z,61.47
2018-01-10T01:08:17.768Z,70.00
2018-01-10T01:08:49.335Z,66.45
2018-01-10T01:09:20.884Z,76.97
2018-01-10T01:09:52.622Z,62.85
2018-01-10T01:10:24.180Z,63.22
2018-01-10T01:10:55.742Z,69.35
2018-01-10T01:11:27.318Z,62.47
2018-01-10T01:11:58.913Z,63.85
2018-01-10T01:12:30.461Z,69.47
2018-01-10T01:13:02.079Z,63.13
2018-01-10T01:13:33.648Z,63.70
2018-01-10T01:14:05.215Z,62.60
2018-01-10T01:14:36.798Z,73.80
2018-01-10T01:15:08.356Z,66.70
2018-01-10T01:15:39.930Z,76.75
2018-01-10T01:16:11.492Z,61.42
2018-01-10T01:16:43.056Z,65.43
2018-01-10T01:17:14.608Z,71.75
2018-01-10T01:17:46.155Z,71.78
2018-01-10T01:18:17.708Z,69.50
2018-01-10T01:18:49.266Z,65.72
2018-01-10T01:19:20.829Z,65.90
2018-01-10T01:19:52.410Z,65.57
2018-01-10T01:20:23.950Z,60.58
2018-01-10T01:20:55.504Z,53.80
2018-01-10T01:21:27.063Z,56.70
2018-01-10T01:21:58.610Z,69.65
2018-01-10T01:22:30.169Z,68.22
2018-01-10T01:23:01.724Z,64.57
2018-01-10T01:23:33.292Z,68.18
2018-01-10T01:24:04.872Z,62.10
2018-01-10T01:24:36.432Z,63.08
2018-01-10T01:25:07.996Z,67.10
2018-01-10T01:25:39.553Z,59.15
2018-01-10T01:26:11.113Z,63.95
2018-01-10T01:26:42.675Z,61.55
2018-01-10T01:27:14.232Z,79.50
2018-01-10T01:27:45.820Z,68.53
2018-01-10T01:28:17.386Z,70.32
2018-01-10T01:28:48.936Z,64.20
2018-01-10T01:29:20.477Z,64.95
2018-01-10T01:29:52.027Z,58.75
2018-01-10T01:30:23.580Z,61.50
2018-01-10T01:30:55.148Z,63.63
2018-01-10T01:31:26.742Z,59.53
2018-01-10T01:31:58.319Z,82.62
2018-01-10T01:32:29.887Z,61.42
2018-01-10T01:33:01.461Z,59.15
2018-01-10T01:33:33.002Z,61.65
2018-01-10T01:34:04.576Z,55.12
2018-01-10T01:34:36.206Z,70.35
2018-01-10T01:35:07.770Z,64.22
2018-01-10T01:35:39.348Z,62.20
2018-01-10T01:36:10.901Z,65.05
2018-01-10T01:36:42.463Z,66.60
2018-01-10T01:37:14.012Z,66.50
2018-01-10T01:37:45.564Z,64.35
2018-01-10T01:38:17.142Z,62.90
2018-01-10T01:38:48.710Z,64.97
2018-01-10T01:39:20.280Z,73.30
2018-01-10T01:39:51.824Z,59.80
2018-01-10T01:40:23.370Z,61.47
2018-01-10T01:40:54.935Z,61.17
2018-01-10T01:41:26.500Z,68.70
2018-01-10T01:41:58.075Z,68.60
2018-01-10T01:42:29.636Z,71.37
2018-01-10T01:43:01.196Z,75.72
2018-01-10T01:43:32.740Z,71.87
2018-01-10T01:44:04.312Z,60.85
2018-01-10T01:44:35.900Z,64.47
2018-01-10T01:45:07.470Z,70.65
2018-01-10T01:45:39.044Z,68.10
2018-01-10T01:46:10.612Z,57.55
2018-01-10T01:46:42.184Z,61.70
2018-01-10T01:47:13.742Z,67.50
2018-01-10T01:47:45.302Z,61.80
2018-01-10T01:48:16.864Z,68.43
2018-01-10T01:48:48.425Z,60.90
2018-01-10T01:49:19.986Z,60.17
2018-01-10T01:49:51.569Z,66.93
2018-01-10T01:50:23.132Z,69.53
2018-01-10T01:50:54.675Z,67.00
2018-01-10T01:51:26.248Z,63.75
2018-01-10T01:51:57.806Z,71.32
2018-01-10T01:52:29.366Z,68.12
2018-01-10T01:53:00.914Z,68.40
2018-01-10T01:53:32.494Z,58.78
2018-01-10T01:54:04.050Z,65.65
2018-01-10T01:54:35.610Z,70.55
2018-01-10T01:55:07.204Z,72.35
2018-01-10T01:55:38.779Z,66.12
2018-01-10T01:56:10.320Z,69.07
2018-01-10T01:56:41.860Z,71.12
2018-01-10T01:57:13.428Z,68.05
2018-01-10T01:57:44.967Z,72.70
2018-01-10T01:58:16.509Z,70.60
2018-01-10T01:58:48.080Z,79.75
2018-01-10T01:59:19.689Z,69.62
2018-01-10T01:59:51.300Z,70.22
2018-01-10T02:00:22.897Z,68.15
2018-01-10T02:00:54.470Z,73.93
2018-01-10T02:01:26.054Z,69.95
2018-01-10T02:01:57.612Z,75.85
2018-01-10T02:02:29.174Z,68.07
2018-01-10T02:03:00.722Z,65.07
2018-01-10T02:03:32.264Z,69.35
2018-01-10T02:04:03.852Z,70.68
2018-01-10T02:04:35.452Z,61.47
2018-01-10T02:05:07.025Z,63.38
2018-01-10T02:05:38.590Z,65.32
2018-01-10T02:06:10.168Z,67.10
2018-01-10T02:06:41.746Z,79.95
2018-01-10T02:07:13.324Z,71.00
2018-01-10T02:07:44.875Z,64.82
2018-01-10T02:08:16.444Z,67.87
2018-01-10T02:08:48.014Z,68.55
2018-01-10T02:09:19.570Z,68.55
2018-01-10T02:09:51.140Z,63.70
2018-01-10T02:10:22.705Z,61.85
2018-01-10T02:10:54.284Z,73.55
2018-01-10T02:11:25.852Z,71.03
2018-01-10T02:11:57.392Z,66.40
2018-01-10T02:12:28.967Z,61.92
2018-01-10T02:13:00.513Z,68.18
2018-01-10T02:13:32.088Z,70.62
2018-01-10T02:14:03.652Z,79.62
2018-01-10T02:14:35.232Z,72.47
2018-01-10T02:15:06.787Z,67.78
2018-01-10T02:15:38.337Z,71.25
2018-01-10T02:16:09.922Z,62.30
2018-01-10T02:16:41.488Z,69.97
2018-01-10T02:17:13.043Z,72.18
2018-01-10T02:17:44.627Z,70.90
2018-01-10T02:18:16.206Z,68.57
2018-01-10T02:18:47.784Z,70.25
2018-01-10T02:19:19.364Z,71.30
2018-01-10T02:19:50.948Z,64.10
2018-01-10T02:20:22.524Z,73.07
2018-01-10T02:20:54.122Z,67.70
2018-01-10T02:21:25.696Z,66.30
2018-01-10T02:21:57.232Z,69.53
2018-01-10T02:22:28.808Z,73.47
2018-01-10T02:23:00.376Z,63.87
2018-01-10T02:23:31.920Z,65.55
2018-01-10T02:24:03.487Z,73.35
2018-01-10T02:24:35.072Z,60.92
2018-01-10T02:25:06.642Z,64.80
2018-01-10T02:25:38.192Z,74.15
2018-01-10T02:26:09.744Z,80.93
2018-01-10T02:26:41.336Z,79.43
2018-01-10T02:27:12.892Z,65.30
2018-01-10T02:27:44.452Z,67.78
2018-01-10T02:28:16.033Z,76.37
2018-01-10T02:28:47.574Z,73.00
2018-01-10T02:29:19.136Z,67.05
2018-01-10T02:29:50.704Z,72.43
2018-01-10T02:30:22.270Z,62.25
2018-01-10T02:30:53.847Z,65.70
2018-01-10T02:31:25.413Z,68.35
2018-01-10T02:31:56.990Z,69.85
2018-01-10T02:32:28.540Z,67.00
2018-01-10T02:33:00.108Z,61.63
2018-01-10T02:33:31.660Z,65.70
2018-01-10T02:34:03.204Z,69.28
2018-01-10T02:34:34.754Z,68.15
2018-01-10T02:35:06.312Z,69.32
2018-01-10T02:35:37.868Z,65.03
2018-01-10T02:36:09.406Z,65.57
2018-01-10T02:36:40.967Z,69.87
2018-01-10T02:37:12.529Z,64.00
2018-01-10T02:37:44.088Z,64.22
2018-01-10T02:38:15.648Z,65.20
2018-01-10T02:38:47.220Z,72.87
2018-01-10T02:39:18.778Z,70.25
2018-01-10T02:39:50.325Z,66.40
2018-01-10T02:40:21.878Z,63.55
2018-01-10T02:40:53.432Z,66.97
2018-01-10T02:41:24.996Z,68.47
2018-01-10T02:41:56.560Z,71.00
2018-01-10T02:42:36.340Z,63.30
2018-01-10T02:43:07.898Z,63.05
2018-01-10T02:43:39.476Z,67.90
2018-01-10T02:44:11.039Z,69.80
2018-01-10T02:44:42.601Z,60.97
2018-01-10T02:45:14.171Z,62.90
2018-01-10T02:45:45.738Z,68.32
2018-01-10T02:46:17.261Z,62.20
2018-01-10T02:46:48.804Z,69.05
2018-01-10T02:47:20.425Z,62.65
2018-01-10T02:47:52.071Z,61.08
2018-01-10T02:48:23.621Z,63.13
2018-01-10T02:48:55.200Z,65.37
2018-01-10T02:49:26.752Z,70.57
2018-01-10T02:49:58.352Z,67.75
2018-01-10T02:50:29.920Z,75.72
2018-01-10T02:51:01.497Z,75.10
2018-01-10T02:51:33.047Z,68.82
2018-01-10T02:52:04.615Z,70.15
2018-01-10T02:52:36.190Z,75.15
2018-01-10T02:53:07.772Z,62.75
2018-01-10T02:53:39.355Z,71.05
2018-01-10T02:54:10.924Z,66.00
2018-01-10T02:54:42.488Z,74.65
2018-01-10T02:55:14.060Z,72.18
2018-01-10T02:55:45.639Z,65.68
2018-01-10T02:56:17.218Z,65.85
2018-01-10T02:56:48.809Z,67.37
2018-01-10T02:57:20.387Z,60.42
2018-01-10T02:57:52.013Z,65.53
2018-01-10T02:58:23.576Z,70.70
2018-01-10T02:58:55.158Z,60.55
2018-01-10T02:59:26.730Z,80.22
2018-01-10T02:59:58.308Z,73.18
2018-01-10T03:00:29.876Z,56.65
2018-01-10T03:01:01.469Z,63.72
2018-01-10T03:01:33.058Z,73.18
2018-01-10T03:02:04.672Z,65.43
2018-01-10T03:02:36.291Z,64.55
2018-01-10T03:03:07.850Z,56.97
2018-01-10T03:03:39.444Z,67.32
2018-01-10T03:04:11.021Z,60.03
2018-01-10T03:04:42.590Z,54.90
2018-01-10T03:05:14.168Z,65.37
2018-01-10T03:05:45.734Z,66.68
2018-01-10T03:06:17.277Z,59.53
2018-01-10T03:06:48.866Z,62.78
2018-01-10T03:07:20.448Z,60.45
2018-01-10T03:07:52.018Z,60.85
2018-01-10T03:08:23.610Z,62.80
2018-01-10T03:08:55.594Z,64.18
2018-01-10T03:09:27.154Z,64.57
2018-01-10T03:09:58.714Z,63.63
2018-01-10T03:10:30.312Z,62.78
2018-01-10T03:11:01.877Z,54.50
2018-01-10T03:11:33.441Z,64.70
2018-01-10T03:12:05.021Z,63.45
2018-01-10T03:12:36.589Z,56.20
2018-01-10T03:13:08.166Z,54.78
2018-01-10T03:13:39.724Z,59.53
2018-01-10T03:14:11.346Z,53.22
2018-01-10T03:14:42.916Z,49.33
2018-01-10T03:15:14.495Z,49.75
2018-01-10T03:15:46.038Z,54.45
2018-01-10T03:16:17.621Z,52.80
2018-01-10T03:16:49.194Z,52.47
2018-01-10T03:17:20.756Z,55.92
2018-01-10T03:17:52.316Z,55.15
2018-01-10T03:18:23.876Z,53.10
2018-01-10T03:18:55.476Z,61.22
2018-01-10T03:19:27.068Z,48.35
2018-01-10T03:19:58.655Z,48.10
2018-01-10T03:20:30.212Z,44.10
2018-01-10T03:21:01.776Z,48.50
2018-01-10T03:21:33.343Z,45.97
2018-01-10T03:22:04.897Z,50.38
2018-01-10T03:22:36.472Z,53.45
2018-01-10T03:23:08.051Z,56.95
2018-01-10T03:23:39.621Z,52.50
2018-01-10T03:24:11.186Z,58.92
2018-01-10T03:24:42.764Z,50.05
2018-01-10T03:25:14.308Z,51.17
2018-01-10T03:25:45.893Z,47.33
2018-01-10T03:26:17.436Z,49.42
2018-01-10T03:26:48.996Z,50.08
2018-01-10T03:27:21.068Z,50.75
2018-01-10T03:27:52.639Z,47.55
2018-01-10T03:28:24.206Z,50.28
2018-01-10T03:28:55.800Z,47.03
2018-01-10T03:29:27.362Z,48.40
2018-01-10T03:29:58.936Z,48.10
2018-01-10T03:30:30.511Z,52.40
2018-01-10T03:31:02.060Z,53.33
2018-01-10T03:31:33.625Z,42.15
2018-01-10T03:32:05.192Z,47.90
2018-01-10T03:32:36.776Z,47.78
2018-01-10T03:33:08.326Z,50.88
2018-01-10T03:33:39.920Z,40.58
2018-01-10T03:34:11.502Z,41.08
2018-01-10T03:34:43.105Z,48.58
2018-01-10T03:35:14.657Z,47.22
2018-01-10T03:35:46.214Z,43.28
2018-01-10T03:36:17.803Z,45.38
2018-01-10T03:36:49.377Z,44.65
2018-01-10T03:37:20.958Z,47.78
2018-01-10T03:37:52.532Z,46.42
2018-01-10T03:38:24.093Z,48.70
2018-01-10T03:38:55.656Z,43.08
2018-01-10T03:39:27.218Z,38.90
2018-01-10T03:39:58.789Z,42.08
2018-01-10T03:40:30.384Z,40.15
2018-01-10T03:41:01.945Z,44.22
2018-01-10T03:41:33.528Z,41.30
2018-01-10T03:42:05.087Z,38.92
2018-01-10T03:42:36.662Z,46.60
2018-01-10T03:43:08.218Z,43.30
2018-01-10T03:43:39.785Z,40.10
2018-01-10T03:44:11.356Z,44.83
2018-01-10T03:44:42.933Z,40.65
2018-01-10T03:45:14.500Z,38.55
2018-01-10T03:45:46.091Z,38.33
2018-01-10T03:46:17.656Z,41.25
2018-01-10T03:46:49.248Z,41.75
2018-01-10T03:47:20.805Z,40.22
2018-01-10T03:47:52.396Z,45.22
2018-01-10T03:48:23.944Z,39.50
2018-01-10T03:48:55.504Z,36.70
2018-01-10T03:49:27.062Z,38.50
2018-01-10T03:49:58.618Z,36.35
2018-01-10T03:50:30.158Z,36.85
2018-01-10T03:51:01.712Z,38.50
2018-01-10T03:51:33.254Z,34.97
2018-01-10T03:52:04.804Z,34.78
2018-01-10T03:52:36.366Z,42.40
2018-01-10T03:53:07.928Z,38.78
2018-01-10T03:53:39.483Z,39.17
2018-01-10T03:54:11.070Z,37.00
2018-01-10T03:54:42.642Z,45.33
2018-01-10T03:55:14.192Z,41.72
2018-01-10T03:55:45.741Z,36.50
2018-01-10T03:56:17.302Z,38.47
2018-01-10T03:56:48.872Z,41.20
2018-01-10T03:57:20.436Z,41.72
2018-01-10T03:57:52.062Z,38.78
2018-01-10T03:58:23.596Z,41.28
2018-01-10T03:58:55.160Z,35.83
2018-01-10T03:59:26.720Z,36.35
2018-01-10T03:59:58.265Z,35.45
2018-01-10T04:00:29.858Z,38.65
2018-01-10T04:01:01.444Z,44.05
2018-01-10T04:01:33.000Z,40.15
2018-01-10T04:02:04.553Z,35.05
2018-01-10T04:02:36.136Z,40.40
2018-01-10T04:03:07.686Z,38.90
2018-01-10T04:03:39.252Z,39.20
2018-01-10T04:04:10.808Z,35.40
2018-01-10T04:04:42.352Z,39.10
2018-01-10T04:05:13.897Z,38.45
2018-01-10T04:05:45.452Z,37.95
2018-01-10T04:06:17.028Z,37.40
2018-01-10T04:06:48.588Z,37.40
2018-01-10T04:07:20.133Z,36.55
2018-01-10T04:07:51.676Z,35.22
2018-01-10T04:08:23.224Z,36.85
2018-01-10T04:08:54.788Z,36.83
2018-01-10T04:09:26.350Z,39.80
2018-01-10T04:09:57.890Z,34.97
2018-01-10T04:10:29.452Z,44.88
2018-01-10T04:11:01.018Z,37.35
2018-01-10T04:11:32.592Z,38.65
2018-01-10T04:12:04.173Z,35.22
2018-01-10T04:12:35.716Z,34.17
2018-01-10T04:13:07.258Z,35.42
2018-01-10T04:13:38.796Z,39.40
2018-01-10T04:14:10.332Z,43.83
2018-01-10T04:14:41.909Z,38.72
2018-01-10T04:15:13.484Z,36.92
2018-01-10T04:15:45.045Z,34.03
2018-01-10T04:16:16.616Z,36.83
2018-01-10T04:16:48.172Z,38.10
2018-01-10T04:17:19.720Z,31.98
2018-01-10T04:17:51.268Z,41.03
2018-01-10T04:18:22.838Z,35.53
2018-01-10T04:18:54.386Z,35.22
2018-01-10T04:19:25.944Z,34.20
2018-01-10T04:19:57.514Z,36.35
2018-01-10T04:20:29.068Z,35.15
2018-01-10T04:21:00.616Z,36.88
2018-01-10T04:21:32.160Z,36.50
2018-01-10T04:22:03.720Z,39.40
2018-01-10T04:22:35.276Z,35.00
2018-01-10T04:23:06.841Z,35.92
2018-01-10T04:23:38.388Z,39.75
2018-01-10T04:24:09.921Z,38.50
2018-01-10T04:24:41.458Z,38.45
2018-01-10T04:25:13.026Z,38.83
2018-01-10T04:25:44.585Z,42.80
2018-01-10T04:26:16.153Z,36.33
2018-01-10T04:26:47.692Z,42.38
2018-01-10T04:27:19.256Z,35.05
2018-01-10T04:27:50.816Z,36.70
2018-01-10T04:28:22.364Z,39.15
2018-01-10T04:28:53.926Z,37.20
2018-01-10T04:29:25.490Z,38.88
2018-01-10T04:29:57.046Z,37.70
2018-01-10T04:30:28.592Z,38.92
2018-01-10T04:31:00.160Z,37.95
2018-01-10T04:31:31.718Z,42.15
2018-01-10T04:32:03.269Z,34.90
2018-01-10T04:32:34.838Z,35.53
2018-01-10T04:33:06.418Z,36.55
2018-01-10T04:33:37.994Z,37.55
2018-01-10T04:34:09.544Z,36.95
2018-01-10T04:34:41.084Z,32.10
2018-01-10T04:35:12.625Z,36.30
2018-01-10T04:35:44.168Z,36.85
2018-01-10T04:36:15.721Z,37.95
2018-01-10T04:36:47.251Z,39.28
2018-01-10T04:37:18.800Z,40.38
2018-01-10T04:37:50.343Z,34.45
2018-01-10T04:38:21.890Z,39.30
2018-01-10T04:38:53.451Z,38.63
2018-01-10T04:39:25.009Z,37.53
2018-01-10T04:39:56.560Z,36.72
2018-01-10T04:40:28.120Z,39.42
2018-01-10T04:40:59.676Z,38.92
2018-01-10T04:41:31.235Z,36.00
2018-01-10T04:42:02.780Z,43.15
2018-01-10T04:42:34.324Z,37.47
2018-01-10T04:43:05.884Z,42.72
2018-01-10T04:43:37.452Z,37.10
2018-01-10T04:44:09.012Z,39.13
2018-01-10T04:44:40.554Z,39.30
2018-01-10T04:45:12.108Z,34.42
2018-01-10T04:45:43.704Z,36.60
2018-01-10T04:46:15.250Z,36.10
2018-01-10T04:46:46.816Z,41.83
2018-01-10T04:47:18.370Z,41.03
2018-01-10T04:47:49.930Z,40.10
2018-01-10T04:48:21.520Z,38.90
2018-01-10T04:48:53.089Z,33.33
2018-01-10T04:49:24.645Z,37.58
2018-01-10T04:49:56.188Z,35.90
2018-01-10T04:50:27.736Z,37.83
2018-01-10T04:50:59.294Z,42.92
2018-01-10T04:51:30.871Z,34.63
2018-01-10T04:52:02.452Z,35.83
2018-01-10T04:52:34.016Z,32.80
2018-01-10T04:53:05.560Z,38.10
2018-01-10T04:53:37.144Z,32.80
2018-01-10T04:54:08.706Z,40.33
2018-01-10T04:54:40.268Z,41.72
2018-01-10T04:55:11.828Z,38.85
2018-01-10T04:55:43.416Z,42.55
2018-01-10T04:56:14.968Z,39.63
2018-01-10T04:56:46.540Z,37.22
2018-01-10T04:57:18.104Z,36.08
2018-01-10T04:57:49.680Z,39.65
2018-01-10T04:58:21.258Z,39.83
2018-01-10T04:58:52.824Z,39.08
2018-01-10T04:59:24.400Z,36.80
2018-01-10T04:59:55.946Z,36.28
2018-01-10T05:00:27.512Z,39.33
2018-01-10T05:00:59.096Z,41.50
2018-01-10T05:01:30.648Z,37.65
2018-01-10T05:02:02.232Z,37.60
2018-01-10T05:02:33.800Z,39.05
2018-01-10T05:03:05.390Z,38.17
2018-01-10T05:03:36.955Z,37.30
2018-01-10T05:04:08.506Z,38.17
2018-01-10T05:04:40.073Z,40.30
2018-01-10T05:05:11.622Z,36.88
2018-01-10T05:05:43.184Z,40.05
2018-01-10T05:06:14.798Z,36.72
2018-01-10T05:06:46.354Z,36.70
2018-01-10T05:07:17.922Z,36.53
2018-01-10T05:07:49.500Z,37.22
2018-01-10T05:08:21.058Z,37.20
2018-01-10T05:08:52.622Z,35.42
2018-01-10T05:09:24.180Z,33.72
2018-01-10T05:09:55.830Z,36.42
2018-01-10T05:10:27.424Z,32.10
2018-01-10T05:10:59.002Z,36.78
2018-01-10T05:11:30.604Z,35.08
2018-01-10T05:12:02.192Z,35.17
2018-01-10T05:12:33.740Z,38.38
2018-01-10T05:13:05.326Z,40.55
2018-01-10T05:13:36.886Z,36.78
2018-01-10T05:14:08.448Z,35.83
2018-01-10T05:14:40.006Z,32.25
2018-01-10T05:15:11.552Z,30.50
2018-01-10T05:15:43.114Z,32.95
2018-01-10T05:16:14.668Z,35.47
2018-01-10T05:16:46.232Z,35.67
2018-01-10T05:17:17.794Z,40.28
2018-01-10T05:17:49.351Z,37.92
2018-01-10T05:18:20.915Z,37.90
2018-01-10T05:18:52.474Z,35.50
2018-01-10T05:19:24.038Z,36.33
2018-01-10T05:19:55.622Z,32.58
2018-01-10T05:20:27.200Z,37.72
2018-01-10T05:20:58.783Z,41.60
2018-01-10T05:21:30.374Z,37.83
2018-01-10T05:22:01.942Z,35.63
2018-01-10T05:22:33.492Z,33.38
2018-01-10T05:23:05.067Z,35.40
2018-01-10T05:23:36.654Z,40.08
2018-01-10T05:24:08.226Z,36.97
2018-01-10T05:24:39.780Z,39.42
2018-01-10T05:25:11.342Z,33.38
2018-01-10T05:25:42.880Z,38.08
2018-01-10T05:26:14.428Z,34.95
2018-01-10T05:26:45.978Z,42.05
2018-01-10T05:27:17.540Z,37.00
2018-01-10T05:27:49.100Z,36.72
2018-01-10T05:28:20.668Z,36.78
2018-01-10T05:28:52.232Z,42.08
2018-01-10T05:29:23.794Z,37.15
2018-01-10T05:29:55.360Z,33.50
2018-01-10T05:30:26.920Z,39.80
2018-01-10T05:30:58.512Z,40.60
2018-01-10T05:31:30.106Z,41.20
2018-01-10T05:32:01.672Z,40.28
2018-01-10T05:32:33.248Z,37.67
2018-01-10T05:33:04.808Z,40.70
2018-01-10T05:33:36.420Z,40.80
2018-01-10T05:34:07.978Z,35.92
2018-01-10T05:34:39.652Z,35.67
2018-01-10T05:35:11.235Z,37.28
2018-01-10T05:35:42.808Z,34.50
2018-01-10T05:36:14.380Z,42.78
2018-01-10T05:36:45.950Z,41.65
2018-01-10T05:37:17.514Z,35.97
2018-01-10T05:37:49.136Z,35.00
2018-01-10T05:38:20.698Z,34.13
2018-01-10T05:38:52.284Z,40.95
2018-01-10T05:39:23.898Z,42.22
2018-01-10T05:39:55.476Z,42.45
2018-01-10T05:40:27.032Z,40.40
2018-01-10T05:40:58.592Z,36.67
2018-01-10T05:41:30.168Z,43.45
2018-01-10T05:42:01.738Z,42.10
2018-01-10T05:42:33.328Z,38.03
2018-01-10T05:43:04.908Z,38.53
2018-01-10T05:43:36.471Z,42.35
2018-01-10T05:44:08.038Z,40.10
2018-01-10T05:44:39.616Z,41.83
2018-01-10T05:45:11.198Z,43.95
2018-01-10T05:45:42.777Z,41.63
2018-01-10T05:46:14.344Z,40.80
2018-01-10T05:46:45.908Z,38.08
2018-01-10T05:47:17.460Z,44.13
2018-01-10T05:47:49.037Z,38.72
2018-01-10T05:48:20.610Z,36.67
2018-01-10T05:48:52.180Z,42.30
2018-01-10T05:49:23.740Z,38.60
2018-01-10T05:49:55.307Z,43.55
2018-01-10T05:50:26.888Z,41.90
2018-01-10T05:50:58.457Z,39.40
2018-01-10T05:51:30.050Z,41.97
2018-01-10T05:52:01.625Z,39.95
2018-01-10T05:52:33.175Z,49.20
2018-01-10T05:53:04.732Z,39.80
2018-01-10T05:53:36.309Z,41.47
2018-01-10T05:54:07.871Z,43.63
2018-01-10T05:54:39.434Z,40.47
2018-01-10T05:55:10.995Z,36.63
2018-01-10T05:55:42.568Z,44.03
2018-01-10T05:56:14.137Z,41.92
2018-01-10T05:56:45.724Z,43.90
2018-01-10T05:57:17.308Z,42.58
2018-01-10T05:57:49.059Z,42.88
2018-01-10T05:58:20.630Z,34.00
2018-01-10T05:58:52.224Z,39.58
2018-01-10T05:59:23.780Z,39.65
2018-01-10T05:59:55.350Z,42.47
2018-01-10T06:00:26.937Z,41.25
2018-01-10T06:00:58.511Z,38.67
2018-01-10T06:01:30.066Z,38.33
2018-01-10T06:02:01.616Z,44.78
2018-01-10T06:02:33.148Z,41.47
2018-01-10T06:03:04.696Z,40.72
2018-01-10T06:03:36.263Z,45.08
2018-01-10T06:04:07.818Z,38.75
2018-01-10T06:04:39.383Z,42.05
2018-01-10T06:05:10.952Z,40.63
2018-01-10T06:05:42.512Z,46.30
2018-01-10T06:06:14.080Z,40.58
2018-01-10T06:06:45.659Z,43.30
2018-01-10T06:07:17.218Z,46.30
2018-01-10T06:07:48.780Z,43.90
2018-01-10T06:08:20.346Z,46.03
2018-01-10T06:08:51.896Z,43.70
2018-01-10T06:09:23.446Z,45.35
2018-01-10T06:09:55.004Z,47.67
2018-01-10T06:10:26.552Z,46.63
2018-01-10T06:10:58.136Z,37.90
2018-01-10T06:11:29.688Z,38.58
2018-01-10T06:12:01.256Z,36.63
2018-01-10T06:12:32.824Z,43.15
2018-01-10T06:13:04.495Z,42.22
2018-01-10T06:13:36.069Z,38.63
2018-01-10T06:14:07.614Z,42.90
2018-01-10T06:14:39.219Z,36.53
2018-01-10T06:15:10.756Z,44.55
2018-01-10T06:15:42.320Z,40.83
2018-01-10T06:16:13.894Z,42.78
2018-01-10T06:16:45.458Z,39.30
2018-01-10T06:17:17.022Z,35.85
2018-01-10T06:17:48.590Z,39.97
2018-01-10T06:18:20.160Z,39.55
2018-01-10T06:18:51.744Z,43.95
2018-01-10T06:19:23.311Z,40.15
2018-01-10T06:19:54.868Z,41.97
2018-01-10T06:20:26.446Z,43.97
2018-01-10T06:20:58.000Z,45.58
2018-01-10T06:21:29.562Z,36.63
2018-01-10T06:22:01.127Z,40.45
2018-01-10T06:22:32.686Z,47.40
2018-01-10T06:23:04.239Z,46.03
2018-01-10T06:23:35.805Z,43.45
2018-01-10T06:24:07.346Z,32.50
2018-01-10T06:24:38.912Z,42.78
2018-01-10T06:25:10.474Z,41.58
2018-01-10T06:25:42.049Z,39.22
2018-01-10T06:26:13.626Z,39.25
2018-01-10T06:26:45.222Z,39.95
2018-01-10T06:27:16.820Z,40.95
2018-01-10T06:27:48.422Z,38.17
2018-01-10T06:28:20.379Z,42.38
2018-01-10T06:28:51.939Z,37.50
2018-01-10T06:29:23.498Z,40.58
2018-01-10T06:29:55.050Z,37.45
2018-01-10T06:30:26.638Z,40.20
2018-01-10T06:30:58.206Z,43.90
2018-01-10T06:31:29.774Z,44.35
2018-01-10T06:32:01.328Z,42.75
2018-01-10T06:32:32.897Z,41.20
2018-01-10T06:33:04.464Z,38.47
2018-01-10T06:33:36.020Z,41.15
2018-01-10T06:34:07.592Z,41.75
2018-01-10T06:34:39.148Z,39.85
2018-01-10T06:35:10.730Z,42.10
2018-01-10T06:35:42.308Z,38.65
2018-01-10T06:36:13.880Z,39.03
2018-01-10T06:36:45.498Z,46.80
2018-01-10T06:37:17.067Z,39.60
2018-01-10T06:37:48.686Z,41.25
2018-01-10T06:38:20.270Z,38.83
2018-01-10T06:38:51.811Z,38.22
2018-01-10T06:39:23.362Z,41.60
2018-01-10T06:39:54.941Z,38.74
2018-01-10T06:40:26.524Z,39.78
2018-01-10T06:40:58.076Z,44.95
2018-01-10T06:41:29.680Z,40.35
2018-01-10T06:42:01.268Z,36.88
2018-01-10T06:42:32.830Z,37.70
2018-01-10T06:43:04.411Z,45.45
2018-01-10T06:43:35.990Z,40.08
2018-01-10T06:44:07.564Z,42.80
2018-01-10T06:44:39.139Z,42.00
2018-01-10T06:45:10.721Z,38.80
2018-01-10T06:45:42.284Z,39.10
2018-01-10T06:46:13.846Z,41.00
2018-01-10T06:46:45.450Z,36.75